Time;durP1;ratioP1;P1;durP2;ratioP2;P2;SDS_P1;SDS_P2;PMS_P1;PMS_P2;Temp;Humidity;BMP_temperature;BMP_pressure;BME280_temperature;BME280_humidity;BME280_pressure;Samples;Min_cycle;Max_cycle;Signal;HPM_P1;HPM_P2
2022/04/18 00:00:57;;;;;;;2.17;1.10;;;;;;;20.01;33.45;101926.22;5002353;28;20416;-54
2022/04/18 00:03:24;;;;;;;2.90;0.70;;;;;;;19.98;33.36;101927.53;5011295;28;20026;-53
2022/04/18 00:05:50;;;;;;;2.38;1.13;;;;;;;20.21;35.90;101923.03;5011810;28;20021;-54
2022/04/18 00:08:16;;;;;;;2.70;1.20;;;;;;;19.96;31.64;101921.50;5011433;28;20226;-54
2022/04/18 00:10:44;;;;;;;3.90;0.90;;;;;;;19.44;31.97;101916.09;5011730;28;20032;-54
2022/04/18 00:13:10;;;;;;;1.67;0.70;;;;;;;19.34;34.45;101918.59;5011077;28;20038;-54
2022/04/18 00:15:36;;;;;;;2.17;0.80;;;;;;;19.41;35.05;101921.16;5011813;28;20389;-53
2022/04/18 00:18:03;;;;;;;1.15;0.60;;;;;;;19.23;34.58;101925.66;4993943;28;20211;-54
2022/04/18 00:20:30;;;;;;;3.22;0.95;;;;;;;19.04;32.43;101929.56;5011387;28;20409;-54
2022/04/18 00:22:56;;;;;;;2.67;0.88;;;;;;;19.03;32.95;101929.81;5011153;28;20042;-56
2022/04/18 00:25:22;;;;;;;4.80;1.17;;;;;;;19.15;36.45;101923.28;5011211;28;20038;-56
2022/04/18 00:27:49;;;;;;;2.45;1.00;;;;;;;19.03;34.77;101924.38;5014439;28;20022;-56
2022/04/18 00:30:15;;;;;;;3.38;1.02;;;;;;;18.70;36.06;101918.44;5015289;28;20034;-56
2022/04/18 00:32:41;;;;;;;1.85;0.80;;;;;;;18.73;37.71;101912.56;5014908;28;20469;-56
2022/04/18 00:35:08;;;;;;;3.05;0.82;;;;;;;18.50;38.55;101907.09;5015017;28;20030;-55
2022/04/18 00:37:36;;;;;;;2.75;0.80;;;;;;;18.33;39.70;101903.41;5014913;28;20028;-56
2022/04/18 00:40:04;;;;;;;3.75;0.82;;;;;;;18.39;39.48;101897.03;5015037;28;20030;-56
2022/04/18 00:42:30;;;;;;;2.97;0.70;;;;;;;18.41;40.53;101887.59;5014491;28;20555;-55
2022/04/18 00:44:56;;;;;;;2.88;0.82;;;;;;;17.60;40.15;101877.25;5012127;28;20026;-55
2022/04/18 00:47:22;;;;;;;2.47;0.60;;;;;;;17.33;39.53;101876.75;5005321;28;20030;-56
2022/04/18 00:49:48;;;;;;;4.60;0.90;;;;;;;17.44;39.66;101865.19;5015010;28;20041;-55
2022/04/18 00:52:16;;;;;;;1.73;0.73;;;;;;;17.03;40.80;101861.25;5014249;28;20104;-52
2022/04/18 00:54:43;;;;;;;2.40;0.80;;;;;;;17.17;40.29;101855.72;5014640;28;20018;-55
2022/04/18 00:57:11;;;;;;;1.92;0.70;;;;;;;17.02;43.25;101858.78;5014725;28;20030;-56
2022/04/18 00:59:37;;;;;;;2.83;0.80;;;;;;;16.94;41.74;101849.09;5014620;28;20027;-55
2022/04/18 01:02:05;;;;;;;4.82;1.00;;;;;;;16.89;40.40;101851.63;5014366;28;20481;-56
2022/04/18 01:04:32;;;;;;;3.35;0.80;;;;;;;16.68;42.23;101855.53;5014902;28;20033;-56
2022/04/18 01:07:02;;;;;;;2.47;0.60;;;;;;;16.86;40.58;101858.28;5014627;28;20041;-56
2022/04/18 01:09:29;;;;;;;2.28;1.17;;;;;;;17.01;41.04;101857.97;5014740;28;20022;-56
2022/04/18 01:11:55;;;;;;;3.80;0.80;;;;;;;16.80;40.10;101866.47;5014694;28;20026;-56
2022/04/18 01:14:21;;;;;;;3.03;0.80;;;;;;;16.87;42.57;101864.53;5014381;28;20215;-56
2022/04/18 01:16:48;;;;;;;1.60;0.65;;;;;;;16.93;41.36;101866.34;5014224;28;20037;-56
2022/04/18 01:19:14;;;;;;;1.80;0.70;;;;;;;16.94;41.49;101859.91;5014072;28;20105;-56
2022/04/18 01:21:40;;;;;;;3.08;0.98;;;;;;;17.10;40.81;101862.03;5013446;28;20577;-56
2022/04/18 01:28:58;;;;;;;2.28;0.60;;;;;;;16.92;40.84;101853.88;5014408;28;20363;-56
2022/04/18 01:29:37;;;;;;;2.45;0.50;;;;;;;17.23;39.83;101849.41;5014421;28;20049;-56
2022/04/18 01:32:04;;;;;;;2.45;0.73;;;;;;;17.33;40.14;101850.53;5013918;28;20125;-56
2022/04/18 01:34:30;;;;;;;2.03;0.70;;;;;;;17.31;40.76;101846.38;5012337;28;20037;-57
2022/04/18 01:36:57;;;;;;;3.65;1.13;;;;;;;17.22;40.85;101848.56;5005349;28;20033;-57
2022/04/18 01:39:23;;;;;;;2.83;0.90;;;;;;;16.86;41.33;101844.78;4993127;28;20034;-57
2022/04/18 01:41:49;;;;;;;3.75;0.90;;;;;;;17.01;42.32;101841.72;5006572;28;20026;-57
2022/04/18 01:44:16;;;;;;;2.63;0.80;;;;;;;16.79;40.27;101840.50;4996060;28;20125;-58
2022/04/18 01:46:42;;;;;;;1.65;0.68;;;;;;;16.75;40.25;101833.88;4994634;28;20104;-57
2022/04/18 01:49:08;;;;;;;2.58;1.00;;;;;;;16.77;40.04;101826.38;4994185;28;20038;-57
2022/04/18 01:51:34;;;;;;;2.15;0.60;;;;;;;16.49;40.13;101830.34;4993418;28;20050;-56
2022/04/18 01:54:01;;;;;;;2.88;0.93;;;;;;;16.33;39.93;101826.31;5003399;28;20033;-53
2022/04/18 01:56:27;;;;;;;2.17;0.80;;;;;;;16.46;41.10;101817.25;5026546;28;20500;-54
2022/04/18 01:58:53;;;;;;;4.22;1.13;;;;;;;16.32;41.51;101813.88;5030113;28;20433;-52
2022/04/18 02:01:19;;;;;;;2.55;0.68;;;;;;;16.15;40.07;101803.78;5012939;28;20033;-54
2022/04/18 02:03:46;;;;;;;3.92;0.95;;;;;;;16.25;41.19;101804.13;5013375;28;20026;-53
2022/04/18 02:06:12;;;;;;;1.98;0.85;;;;;;;16.52;41.04;101802.03;5013235;28;20431;-54
2022/04/18 02:08:38;;;;;;;4.88;1.00;;;;;;;16.14;40.39;101799.44;5012793;28;20111;-49
2022/04/18 02:11:05;;;;;;;1.83;0.70;;;;;;;16.40;42.04;101795.72;5012417;28;20056;-52
2022/04/18 02:13:32;;;;;;;3.85;0.80;;;;;;;16.33;40.92;101793.91;5011568;28;20025;-50
2022/04/18 02:15:59;;;;;;;1.00;0.50;;;;;;;16.14;41.43;101808.38;5012405;28;20129;-50
2022/04/18 02:18:25;;;;;;;1.33;0.65;;;;;;;15.98;40.95;101801.63;5010211;28;20045;-52
2022/04/18 02:20:51;;;;;;;4.28;1.02;;;;;;;16.01;42.14;101806.59;5011073;28;20041;-51
2022/04/18 02:23:18;;;;;;;3.30;0.80;;;;;;;15.98;42.32;101801.63;5013088;28;20033;-49
2022/04/18 02:25:44;;;;;;;1.00;0.63;;;;;;;15.93;41.94;101803.31;5011166;28;20025;-51
2022/04/18 02:28:10;;;;;;;3.17;0.80;;;;;;;15.77;41.46;101788.50;4993054;28;20037;-50
2022/04/18 02:30:36;;;;;;;2.53;0.90;;;;;;;15.78;41.64;101796.38;5006081;28;20390;-49
2022/04/18 02:33:03;;;;;;;2.50;0.63;;;;;;;15.67;42.32;101799.75;5007041;28;20146;-51
2022/04/18 02:35:29;;;;;;;2.40;1.00;;;;;;;15.49;42.00;101805.84;5011313;28;20405;-50
2022/04/18 02:37:56;;;;;;;3.60;0.93;;;;;;;15.44;41.57;101799.44;5005632;28;20055;-51
2022/04/18 02:40:23;;;;;;;0.90;0.57;;;;;;;15.39;41.57;101801.97;5013139;28;20385;-53
2022/04/18 02:42:49;;;;;;;3.97;1.35;;;;;;;15.28;42.19;101804.28;5010413;28;20072;-53
2022/04/18 02:45:20;;;;;;;4.05;1.30;;;;;;;15.07;42.59;101801.03;5012848;28;20572;-54
2022/04/18 02:47:47;;;;;;;1.63;0.60;;;;;;;14.83;43.03;101802.56;5013185;28;20112;-52
2022/04/18 02:50:14;;;;;;;3.38;0.95;;;;;;;14.76;43.65;101797.16;5006817;28;20550;-53
2022/04/18 02:52:40;;;;;;;3.72;0.80;;;;;;;14.67;43.55;101799.25;5004213;28;20500;-53
2022/04/18 02:55:07;;;;;;;1.70;0.98;;;;;;;14.40;42.96;101790.34;5011293;28;20064;-53
2022/04/18 02:57:34;;;;;;;3.22;0.73;;;;;;;14.22;43.58;101795.53;5012827;28;20053;-51
2022/04/18 03:00:00;;;;;;;3.38;0.75;;;;;;;14.15;42.29;101792.81;5012604;28;20569;-50
2022/04/18 03:02:26;;;;;;;1.08;0.85;;;;;;;14.04;43.41;101800.66;5012274;28;20469;-53
2022/04/18 03:04:52;;;;;;;1.95;0.90;;;;;;;13.92;44.21;101795.91;5012677;28;20025;-51
2022/04/18 03:07:19;;;;;;;2.13;0.88;;;;;;;13.60;45.74;101794.81;5012558;28;20025;-52
2022/04/18 03:09:46;;;;;;;1.98;0.82;;;;;;;13.71;46.02;101790.66;5000439;28;20033;-53
2022/04/18 03:12:12;;;;;;;2.65;0.70;;;;;;;13.56;47.31;101781.97;5000899;28;20022;-52
2022/04/18 03:14:38;;;;;;;3.05;1.48;;;;;;;13.51;48.26;101784.44;5012318;28;20128;-53
2022/04/18 03:17:05;;;;;;;3.60;1.33;;;;;;;13.28;49.56;101777.53;5012753;28;20026;-53
2022/04/18 03:19:31;;;;;;;4.53;1.20;;;;;;;12.90;51.52;101774.41;5012112;28;20033;-53
2022/04/18 03:21:59;;;;;;;5.85;1.50;;;;;;;12.72;51.77;101777.63;5011944;28;20053;-53
2022/04/18 03:24:25;;;;;;;2.92;1.10;;;;;;;12.60;52.16;101782.72;5012203;28;20022;-51
2022/04/18 03:26:51;;;;;;;3.00;0.85;;;;;;;12.24;52.98;101788.22;5012545;28;20061;-52
2022/04/18 03:29:17;;;;;;;2.88;1.10;;;;;;;11.92;53.83;101778.84;5012588;28;20026;-52
2022/04/18 03:31:44;;;;;;;4.65;1.02;;;;;;;11.87;54.12;101782.09;5012057;28;20080;-53
2022/04/18 03:34:10;;;;;;;3.95;0.80;;;;;;;11.68;54.27;101782.69;5011882;28;20105;-50
2022/04/18 03:42:09;;;;;;;6.20;1.30;;;;;;;11.29;56.92;101786.59;5012135;28;20076;-53
2022/04/18 03:44:40;;;;;;;2.25;1.20;;;;;;;11.16;58.19;101791.78;5011861;28;20042;-53
2022/04/18 03:47:06;;;;;;;4.07;1.20;;;;;;;11.21;57.78;101788.53;4995092;28;20109;-52
2022/04/18 03:49:33;;;;;;;3.95;1.65;;;;;;;11.34;57.57;101800.25;5002841;28;20030;-53
2022/04/18 03:51:59;;;;;;;4.38;1.52;;;;;;;11.29;58.32;101810.72;5001706;28;20038;-52
2022/04/18 03:54:25;;;;;;;3.38;1.40;;;;;;;11.42;57.87;101814.56;5009582;28;20041;-53
2022/04/18 03:56:51;;;;;;;3.97;1.05;;;;;;;11.46;58.00;101827.41;5011752;28;20344;-52
2022/04/18 03:59:17;;;;;;;3.92;1.15;;;;;;;11.10;58.51;101830.03;5012164;28;20053;-53
2022/04/18 04:01:44;;;;;;;2.88;1.15;;;;;;;10.91;59.58;101835.94;5012832;28;20535;-53
2022/04/18 04:04:10;;;;;;;2.00;1.05;;;;;;;11.01;59.43;101839.19;5006148;28;20030;-53
2022/04/18 04:06:36;;;;;;;3.90;1.10;;;;;;;11.10;59.02;101846.09;5015852;28;20034;-52
2022/04/18 04:09:03;;;;;;;3.65;1.05;;;;;;;11.18;59.00;101851.38;5015057;28;20029;-53
2022/04/18 04:11:29;;;;;;;5.75;1.67;;;;;;;11.24;58.77;101856.00;5015433;28;20029;-53
2022/04/18 04:13:56;;;;;;;3.03;1.40;;;;;;;11.20;58.53;101864.59;5004796;28;20026;-53
2022/04/18 04:16:22;;;;;;;3.10;1.10;;;;;;;11.22;58.50;101860.72;5002549;28;20023;-53
2022/04/18 04:18:51;;;;;;;8.23;1.25;;;;;;;11.13;58.29;101861.81;5009325;28;20504;-53
2022/04/18 04:21:18;;;;;;;5.70;1.40;;;;;;;11.25;58.01;101867.53;4995460;28;20058;-53
2022/04/18 04:23:44;;;;;;;5.93;1.50;;;;;;;11.33;57.79;101865.63;5012652;28;20030;-53
2022/04/18 04:26:11;;;;;;;3.35;1.30;;;;;;;11.43;57.57;101868.00;5015206;28;20058;-53
2022/04/18 04:28:37;;;;;;;4.85;1.70;;;;;;;11.54;57.20;101867.50;5014534;28;20041;-50
2022/04/18 04:31:03;;;;;;;3.60;1.67;;;;;;;11.44;57.21;101879.53;5014612;28;20021;-53
2022/04/18 04:33:31;;;;;;;4.32;1.67;;;;;;;11.48;57.30;101875.47;5009476;28;20520;-53
2022/04/18 04:35:58;;;;;;;4.70;1.40;;;;;;;11.34;57.77;101880.69;5014612;28;20434;-51
2022/04/18 04:38:25;;;;;;;4.57;1.45;;;;;;;11.39;56.96;101881.97;5015121;28;20029;-53
2022/04/18 04:40:53;;;;;;;3.70;1.58;;;;;;;11.37;56.92;101880.28;5014744;28;20099;-54
2022/04/18 04:43:32;;;;;;;2.45;1.52;;;;;;;11.42;56.26;101890.47;4997637;28;20049;-53
2022/04/18 04:46:01;;;;;;;3.95;1.33;;;;;;;11.32;57.09;101893.41;4994670;28;20026;-53
2022/04/18 04:48:27;;;;;;;6.93;1.70;;;;;;;11.13;57.57;101903.88;4995588;28;20043;-53
2022/04/18 04:50:54;;;;;;;5.28;1.02;;;;;;;10.90;57.75;101907.44;5010341;28;20026;-52
2022/04/18 04:53:20;;;;;;;3.67;1.50;;;;;;;10.73;57.52;101906.75;5013484;28;20045;-53
2022/04/18 04:55:47;;;;;;;5.38;1.38;;;;;;;10.59;57.79;101910.22;5014569;28;20018;-53
2022/04/18 04:58:13;;;;;;;2.28;1.00;;;;;;;10.48;57.67;101916.00;5013764;28;20473;-53
2022/04/18 05:00:40;;;;;;;3.53;0.90;;;;;;;10.35;57.66;101913.09;5012979;28;20030;-52
2022/04/18 05:03:06;;;;;;;6.53;0.90;;;;;;;10.39;57.76;101914.41;5010689;23;20061;-53
2022/04/18 05:05:33;;;;;;;4.47;1.10;;;;;;;10.32;58.21;101928.47;5009354;28;20442;-53
2022/04/18 05:07:59;;;;;;;1.50;0.80;;;;;;;10.41;58.02;101928.44;4994930;28;20034;-52
2022/04/18 05:10:25;;;;;;;2.05;0.93;;;;;;;10.35;57.68;101932.66;4994303;28;20037;-53
2022/04/18 05:12:52;;;;;;;3.72;0.80;;;;;;;10.24;58.02;101935.72;4993637;28;20034;-52
2022/04/18 05:15:19;;;;;;;1.15;0.90;;;;;;;10.27;58.15;101933.56;4993831;28;20053;-50
2022/04/18 05:17:45;;;;;;;3.50;0.80;;;;;;;10.32;57.98;101936.50;4994889;28;20378;-52
2022/04/18 05:20:11;;;;;;;2.72;0.90;;;;;;;10.31;57.96;101934.84;4994177;28;20495;-52
2022/04/18 05:22:38;;;;;;;2.80;0.90;;;;;;;10.33;58.39;101940.03;4994335;28;20030;-52
2022/04/18 05:25:04;;;;;;;1.40;0.68;;;;;;;10.43;58.06;101942.47;4993826;28;20033;-53
2022/04/18 05:27:30;;;;;;;3.50;1.10;;;;;;;10.86;55.77;101950.84;4994866;28;20022;-51
2022/04/18 05:29:57;;;;;;;3.15;1.05;;;;;;;10.57;55.66;101952.41;4993904;28;20034;-50
2022/04/18 05:32:23;;;;;;;3.85;0.90;;;;;;;10.37;55.20;101953.88;4993958;28;20133;-51
2022/04/18 05:34:49;;;;;;;2.63;1.10;;;;;;;10.28;55.43;101947.75;4994933;28;20033;-53
2022/04/18 05:37:15;;;;;;;2.70;0.90;;;;;;;10.35;53.65;101953.22;4991511;28;20466;-51
2022/04/18 05:39:41;;;;;;;3.63;1.02;;;;;;;10.05;53.88;101948.53;4990665;28;20041;-51
2022/04/18 05:42:08;;;;;;;2.40;0.93;;;;;;;10.21;53.34;101960.13;4993115;28;20390;-50
2022/04/18 05:44:34;;;;;;;2.00;1.15;;;;;;;10.08;53.54;101960.72;4993572;28;20044;-53
2022/04/18 05:47:01;;;;;;;3.72;1.25;;;;;;;10.11;53.99;101963.03;4994277;28;20057;-53
2022/04/18 05:49:27;;;;;;;2.38;1.52;;;;;;;10.08;53.97;101955.34;4993365;28;20061;-53
2022/04/18 05:51:54;;;;;;;2.17;1.00;;;;;;;10.03;54.13;101952.38;4993150;28;20022;-51
2022/04/18 05:54:20;;;;;;;3.30;1.30;;;;;;;10.08;54.50;101954.53;4976837;28;20027;-53
2022/04/18 05:56:46;;;;;;;7.60;1.10;;;;;;;10.23;52.91;101955.44;4993357;28;20035;-52
2022/04/18 05:59:12;;;;;;;4.75;1.00;;;;;;;10.06;53.10;101952.03;4993711;28;20413;-53
2022/04/18 06:01:38;;;;;;;0.95;0.80;;;;;;;10.17;52.90;101954.31;4992823;28;20117;-51
2022/04/18 06:04:05;;;;;;;2.45;0.85;;;;;;;10.23;52.37;101950.97;4994027;28;20042;-49
2022/04/18 06:06:31;;;;;;;2.95;0.98;;;;;;;10.17;52.05;101954.31;4993238;28;20447;-52
2022/04/18 06:08:57;;;;;;;3.33;0.95;;;;;;;10.04;52.67;101948.69;4993782;28;20054;-53
2022/04/18 06:11:23;;;;;;;2.30;0.80;;;;;;;10.05;53.12;101939.66;4993269;28;20037;-53
2022/04/18 06:13:50;;;;;;;3.38;0.77;;;;;;;10.08;53.45;101944.66;4992684;28;20125;-50
2022/04/18 06:16:16;;;;;;;3.78;0.85;;;;;;;10.05;53.62;101953.88;4992647;28;20184;-53
2022/04/18 06:18:42;;;;;;;1.42;0.90;;;;;;;10.08;53.83;101955.34;4975621;28;20414;-53
2022/04/18 06:21:08;;;;;;;1.55;0.88;;;;;;;10.03;54.15;101953.19;4989888;28;20084;-52
2022/04/18 06:23:34;;;;;;;2.15;0.90;;;;;;;10.00;53.99;101944.72;4974230;28;20065;-53
2022/04/18 06:26:01;;;;;;;1.92;0.90;;;;;;;10.08;53.45;101950.00;4977181;28;20034;-54
2022/04/18 06:28:27;;;;;;;1.63;1.17;;;;;;;9.99;53.40;101938.53;4973434;28;20490;-51
2022/04/18 06:30:53;;;;;;;4.50;1.17;;;;;;;9.95;53.63;101947.91;4974583;28;20053;-49
2022/04/18 06:33:19;;;;;;;1.63;0.70;;;;;;;9.90;53.46;101946.75;4973727;28;20470;-52
2022/04/18 06:35:46;;;;;;;3.38;0.93;;;;;;;9.87;53.22;101949.78;4974050;28;20031;-53
2022/04/18 06:38:12;;;;;;;7.60;1.05;;;;;;;9.71;54.36;101939.97;4986669;28;20037;-50
2022/04/18 06:40:39;;;;;;;3.22;0.82;;;;;;;9.66;54.47;101935.19;4978663;28;20078;-52
2022/04/18 06:43:05;;;;;;;2.63;1.02;;;;;;;9.73;54.28;101930.78;4973240;28;20030;-53
2022/04/18 06:45:31;;;;;;;3.20;1.30;;;;;;;9.68;54.62;101935.00;4984193;28;20401;-52
2022/04/18 06:47:57;;;;;;;3.05;0.98;;;;;;;9.76;54.57;101934.94;4973803;28;20030;-50
2022/04/18 06:50:24;;;;;;;1.63;0.80;;;;;;;9.73;54.63;101933.47;4982728;28;20037;-52
2022/04/18 06:52:50;;;;;;;3.30;1.08;;;;;;;9.70;54.92;101943.66;4993194;28;20030;-49
2022/04/18 06:55:17;;;;;;;2.85;0.93;;;;;;;9.66;55.51;101961.03;4992172;28;20032;-51
2022/04/18 06:57:43;;;;;;;2.47;0.73;;;;;;;9.62;55.83;101957.06;4992485;28;20038;-53
2022/04/18 07:00:10;;;;;;;2.15;0.98;;;;;;;9.71;55.55;101964.88;4973245;28;20521;-52
2022/04/18 07:02:36;;;;;;;6.88;1.25;;;;;;;9.67;55.95;101963.56;4977534;28;20038;-53
2022/04/18 07:05:02;;;;;;;3.70;1.10;;;;;;;9.59;56.62;101962.75;4993034;28;20089;-50
2022/04/18 07:07:29;;;;;;;3.95;1.10;;;;;;;9.67;55.98;101958.22;4992249;28;20029;-53
2022/04/18 07:09:55;;;;;;;3.38;0.95;;;;;;;9.46;57.10;101957.94;4992577;28;20065;-51
2022/04/18 07:12:22;;;;;;;1.40;0.90;;;;;;;9.61;55.93;101948.22;4990910;28;20049;-52
2022/04/18 07:14:49;;;;;;;4.22;0.73;;;;;;;9.69;55.71;101945.50;4991986;28;20034;-53
2022/04/18 07:17:16;;;;;;;1.48;0.95;;;;;;;9.70;56.37;101941.81;4992745;28;20023;-50
2022/04/18 07:19:42;;;;;;;2.75;0.88;;;;;;;9.79;55.77;101946.13;4991955;28;20019;-52
2022/04/18 07:22:08;;;;;;;5.88;1.20;;;;;;;9.75;55.83;101943.97;4992202;28;20030;-52
2022/04/18 07:24:35;;;;;;;6.05;0.93;;;;;;;9.72;56.52;101947.00;4991662;28;20028;-52
2022/04/18 07:27:01;;;;;;;5.20;1.17;;;;;;;9.55;57.33;101951.59;4992551;28;20046;-53
2022/04/18 07:29:31;;;;;;;3.15;1.00;;;;;;;9.62;56.95;101954.41;4991029;28;20515;-53
2022/04/18 07:31:57;;;;;;;2.80;1.10;;;;;;;9.80;56.79;101952.31;4992080;28;20026;-53
2022/04/18 07:34:23;;;;;;;6.43;1.60;;;;;;;9.63;57.54;101956.88;4990815;28;20045;-52
2022/04/18 07:36:49;;;;;;;3.20;1.38;;;;;;;9.72;56.08;101937.16;4972537;28;20390;-51
2022/04/18 07:39:16;;;;;;;3.20;1.10;;;;;;;9.69;57.24;101955.38;4988030;28;20018;-53
2022/04/18 07:41:42;;;;;;;3.28;0.88;;;;;;;9.73;57.01;101946.84;4991825;28;20037;-53
2022/04/18 07:44:08;;;;;;;3.55;1.45;;;;;;;9.75;57.29;101955.50;4989966;28;20022;-51
2022/04/18 07:46:36;;;;;;;3.60;0.70;;;;;;;9.67;57.47;101952.03;4992235;28;20023;-53
2022/04/18 07:49:02;;;;;;;2.67;0.80;;;;;;;9.60;57.46;101959.06;4991160;28;20033;-53
2022/04/18 07:52:01;;;;;;;3.88;1.00;;;;;;;9.60;57.61;101948.38;4991515;28;20038;-50
2022/04/18 07:54:22;;;;;;;1.17;0.75;;;;;;;9.46;58.25;101957.94;4967683;28;20043;-53
2022/04/18 07:56:49;;;;;;;3.03;0.80;;;;;;;9.59;57.78;101954.72;4973574;28;20058;-52
2022/04/18 07:59:15;;;;;;;3.10;1.00;;;;;;;9.58;57.36;101942.38;4964247;28;20145;-53
2022/04/18 08:01:42;;;;;;;4.30;1.30;;;;;;;9.69;57.69;101950.03;4984216;28;20027;-52
2022/04/18 08:04:08;;;;;;;3.67;1.20;;;;;;;9.51;57.98;101958.28;4992012;28;20061;-53
2022/04/18 08:06:34;;;;;;;1.95;0.90;;;;;;;9.51;57.64;101952.94;4991071;28;20398;-50
2022/04/18 08:09:01;;;;;;;1.63;0.90;;;;;;;9.68;57.26;101943.00;4991609;28;20024;-52
2022/04/18 08:11:27;;;;;;;2.38;1.08;;;;;;;9.53;58.22;101950.91;4990121;28;20034;-51
2022/04/18 08:13:54;;;;;;;3.17;0.77;;;;;;;9.56;57.99;101945.22;4990525;28;20102;-53
2022/04/18 08:16:21;;;;;;;2.67;1.08;;;;;;;9.65;57.77;101935.31;4991318;28;20452;-51
2022/04/18 08:18:48;;;;;;;4.25;0.93;;;;;;;9.55;58.07;101932.00;4989920;28;20429;-52
2022/04/18 08:21:17;;;;;;;3.53;1.05;;;;;;;9.63;57.89;101940.84;4974479;28;20078;-52
2022/04/18 08:23:45;;;;;;;3.78;2.42;;;;;;;9.62;57.87;101941.03;4990493;28;20069;-51
2022/04/18 08:26:11;;;;;;;3.60;0.93;;;;;;;9.64;57.91;101937.16;4992099;28;20049;-50
2022/04/18 08:28:38;;;;;;;2.67;0.80;;;;;;;9.62;58.28;101933.84;4990521;28;20478;-52
2022/04/18 08:31:06;;;;;;;5.05;1.08;;;;;;;9.50;58.42;101924.53;4991429;28;20121;-50
2022/04/18 08:33:32;;;;;;;4.03;1.23;;;;;;;9.50;58.41;101911.19;4990819;28;20183;-52
2022/04/18 08:35:59;;;;;;;5.57;1.13;;;;;;;9.47;58.33;101903.50;4991873;28;20057;-51
2022/04/18 08:38:26;;;;;;;2.08;0.98;;;;;;;9.42;58.44;101908.50;4990917;28;20031;-50
2022/04/18 08:40:57;;;;;;;2.83;1.10;;;;;;;9.43;58.76;101908.34;4980287;28;20394;-53
2022/04/18 08:43:23;;;;;;;3.00;1.05;;;;;;;9.55;58.26;101906.16;4972900;28;20146;-51
2022/04/18 08:45:49;;;;;;;4.75;1.20;;;;;;;9.49;58.04;101898.78;4990272;28;20042;-50
2022/04/18 08:53:48;;;;;;;3.38;0.98;;;;;;;7.63;63.80;101895.94;4995296;28;20053;-52
2022/04/18 08:56:14;;;;;;;2.83;1.00;;;;;;;8.18;61.79;101895.44;4996127;28;20536;-50
2022/04/18 08:58:41;;;;;;;2.08;0.80;;;;;;;8.40;60.42;101888.66;4994699;28;20031;-52
2022/04/18 09:01:07;;;;;;;4.32;1.15;;;;;;;8.31;61.00;101878.94;4994924;28;20061;-52
2022/04/18 09:03:37;;;;;;;2.90;1.10;;;;;;;8.43;60.12;101882.97;4979352;28;20062;-50
2022/04/18 09:06:11;;;;;;;1.63;1.17;;;;;;;8.44;60.20;101885.47;4975278;28;20030;-51
2022/04/18 09:08:52;;;;;;;2.38;1.20;;;;;;;8.61;59.96;101891.66;4979603;28;20034;-52
2022/04/18 09:11:46;;;;;;;5.55;1.10;;;;;;;8.35;60.90;101888.28;4975617;28;20041;-52
2022/04/18 09:14:18;;;;;;;2.20;1.13;;;;;;;8.31;60.72;101892.25;4974024;28;20078;-51
2022/04/18 09:16:45;;;;;;;3.63;1.20;;;;;;;8.38;60.24;101879.94;4993716;28;20088;-52
2022/04/18 09:19:13;;;;;;;2.53;1.02;;;;;;;8.39;60.34;101881.66;4995021;28;20525;-51
2022/04/18 09:21:43;;;;;;;3.20;1.00;;;;;;;7.75;61.87;101883.16;4994575;28;20038;-52
2022/04/18 09:24:33;;;;;;;3.65;1.30;;;;;;;6.88;64.60;101882.38;4987899;28;20426;-53
2022/04/18 09:27:31;;;;;;;1.83;1.10;;;;;;;7.21;64.19;101879.91;4975313;28;20023;-53
2022/04/18 09:30:10;;;;;;;2.42;1.10;;;;;;;6.86;65.27;101877.22;4958018;28;20038;-53
2022/04/18 09:32:40;;;;;;;4.63;1.50;;;;;;;6.90;65.18;101876.94;4978465;28;20034;-53
2022/04/18 09:35:07;;;;;;;6.75;1.30;;;;;;;6.79;65.28;101870.03;4994269;28;20057;-50
2022/04/18 09:37:34;;;;;;;4.00;1.27;;;;;;;6.97;64.65;101876.13;4994481;28;20073;-53
2022/04/18 09:40:00;;;;;;;2.75;1.15;;;;;;;6.52;65.81;101874.47;4977842;28;20360;-52
2022/04/18 09:42:29;;;;;;;2.13;1.13;;;;;;;6.76;65.29;101876.47;4980351;28;20524;-51
2022/04/18 09:44:56;;;;;;;4.90;1.23;;;;;;;6.72;65.33;101874.28;4982634;28;20034;-53
2022/04/18 09:47:25;;;;;;;3.72;1.33;;;;;;;6.06;67.13;101871.09;4979120;28;20030;-50
2022/04/18 09:49:51;;;;;;;1.98;1.08;;;;;;;5.85;68.26;101865.19;4979850;28;20382;-53
2022/04/18 09:52:19;;;;;;;1.50;1.10;;;;;;;6.08;67.39;101871.75;4977886;28;20503;-52
2022/04/18 09:54:56;;;;;;;1.90;1.00;;;;;;;6.28;66.69;101871.63;4978265;28;20041;-53
2022/04/18 09:57:28;;;;;;;1.95;1.20;;;;;;;5.71;68.22;101871.84;4975378;28;20109;-50
2022/04/18 09:59:57;;;;;;;2.75;1.02;;;;;;;5.42;69.60;101865.84;4993586;28;20022;-52
2022/04/18 10:02:24;;;;;;;2.45;1.00;;;;;;;5.59;69.34;101854.44;4976559;28;20595;-52
2022/04/18 10:04:53;;;;;;;1.65;1.23;;;;;;;5.24;70.76;101852.53;4993465;28;20057;-52
2022/04/18 10:07:20;;;;;;;3.33;1.45;;;;;;;5.33;70.09;101846.34;4985183;28;20038;-53
2022/04/18 10:09:46;;;;;;;2.78;0.88;;;;;;;5.44;69.99;101845.28;4974636;28;20023;-51
2022/04/18 10:12:13;;;;;;;2.58;0.90;;;;;;;5.03;71.85;101837.66;4975968;28;20050;-52
2022/04/18 10:14:42;;;;;;;4.00;1.30;;;;;;;4.96;72.54;101828.59;4993736;28;20037;-51
2022/04/18 10:17:10;;;;;;;3.35;1.40;;;;;;;4.90;73.45;101821.22;4992410;28;20034;-50
2022/04/18 10:19:51;;;;;;;2.63;1.42;;;;;;;4.96;73.07;101814.50;4974301;28;20035;-52
2022/04/18 10:22:46;;;;;;;5.95;1.20;;;;;;;4.98;73.83;101818.66;4987109;28;20030;-51
2022/04/18 10:25:26;;;;;;;4.30;1.25;;;;;;;5.04;73.52;101809.28;4993882;28;20034;-50
2022/04/18 10:28:08;;;;;;;4.40;1.48;;;;;;;4.92;74.13;101802.50;4992905;28;20512;-50
2022/04/18 10:30:45;;;;;;;2.58;1.30;;;;;;;4.99;74.05;101808.88;4992972;28;20505;-49
2022/04/18 10:33:14;;;;;;;3.97;1.23;;;;;;;4.77;74.71;101804.78;4992891;28;20470;-51
2022/04/18 10:36:09;;;;;;;3.75;1.35;;;;;;;5.03;73.70;101795.19;4991837;28;20078;-49
2022/04/18 10:38:44;;;;;;;3.85;1.38;;;;;;;5.35;72.36;101803.72;4974100;28;20033;-52
2022/04/18 10:41:32;;;;;;;1.90;1.20;;;;;;;5.38;72.06;101806.88;4984063;28;20034;-52
2022/04/18 10:44:07;;;;;;;3.70;1.30;;;;;;;5.46;71.68;101801.69;4993214;28;20045;-52
2022/04/18 10:46:36;;;;;;;5.35;1.27;;;;;;;5.61;71.07;101803.81;4993036;28;20084;-52
2022/04/18 10:49:04;;;;;;;1.58;1.08;;;;;;;5.54;70.93;101811.56;4993131;28;20041;-52
2022/04/18 10:51:36;;;;;;;2.78;1.30;;;;;;;5.71;70.74;101812.56;4992692;28;20043;-52
2022/04/18 10:54:14;;;;;;;1.67;1.42;;;;;;;5.80;70.47;101806.34;4992967;28;20030;-51
2022/04/18 10:57:01;;;;;;;4.50;1.52;;;;;;;6.06;69.39;101817.94;4993051;28;20057;-52
2022/04/18 10:59:37;;;;;;;1.48;1.00;;;;;;;5.55;70.70;101805.25;4992553;28;20022;-53
2022/04/18 11:02:07;;;;;;;5.47;1.42;;;;;;;5.33;72.13;101806.53;4971297;28;20110;-52
2022/04/18 11:04:41;;;;;;;3.30;1.33;;;;;;;4.98;73.67;101812.53;4977572;28;20088;-53
2022/04/18 11:07:09;;;;;;;5.38;1.30;;;;;;;5.00;73.95;101807.94;4992807;28;20038;-52
2022/04/18 11:09:44;;;;;;;4.07;1.40;;;;;;;5.05;73.83;101816.25;4990232;28;20429;-50
2022/04/18 11:12:13;;;;;;;2.42;1.00;;;;;;;5.39;72.27;101803.28;4969895;28;20031;-52
2022/04/18 11:14:45;;;;;;;3.45;1.05;;;;;;;5.50;71.82;101813.69;4976182;28;20358;-49
2022/04/18 11:17:13;;;;;;;3.22;1.05;;;;;;;5.69;71.00;101815.38;4990465;28;20382;-52
2022/04/18 11:19:41;;;;;;;3.70;1.10;;;;;;;5.86;70.12;101813.72;4992113;28;20142;-53
2022/04/18 11:22:24;;;;;;;3.10;1.30;;;;;;;5.99;69.65;101811.53;4990479;28;20030;-52
2022/04/18 11:24:54;;;;;;;3.10;1.13;;;;;;;6.12;68.87;101808.50;4973493;28;20030;-53
2022/04/18 11:27:26;;;;;;;2.40;1.50;;;;;;;6.12;68.79;101813.00;4973017;28;20034;-53
2022/04/18 11:30:02;;;;;;;3.97;1.35;;;;;;;6.15;68.69;101810.00;4972870;28;20027;-54
2022/04/18 11:32:32;;;;;;;;;;;;;;;6.45;67.74;101809.59;4982449;28;20060;-52
2022/04/18 11:35:00;;;;;;;3.08;1.05;;;;;;;6.34;67.60;101815.19;4992430;28;20005;-52
2022/04/18 11:37:27;;;;;;;6.18;1.40;;;;;;;6.27;67.90;101808.78;4992434;28;20026;-53
2022/04/18 11:39:56;;;;;;;1.75;1.10;;;;;;;6.18;67.85;101796.44;4992337;28;20405;-51
2022/04/18 11:42:29;;;;;;;2.70;1.27;;;;;;;6.24;67.78;101806.44;4992116;28;20109;-50
2022/04/18 11:44:58;;;;;;;2.25;1.23;;;;;;;6.27;67.72;101811.44;4989347;28;20061;-53
2022/04/18 11:47:33;;;;;;;2.90;1.20;;;;;;;6.28;67.53;101803.34;4979613;28;20027;-52